createdAt,value
2018-09-14T00:00:16.285Z,6.00
2018-09-14T00:01:16.487Z,6.20
2018-09-14T00:02:16.748Z,6.30
2018-09-14T00:03:16.877Z,6.60
2018-09-14T00:04:17.171Z,6.60
2018-09-14T00:05:17.275Z,6.60
2018-09-14T00:06:17.378Z,5.70
2018-09-14T00:07:17.618Z,6.10
2018-09-14T00:08:17.769Z,6.20
2018-09-14T00:09:17.925Z,6.40
2018-09-14T00:10:18.359Z,6.30
2018-09-14T00:11:19.183Z,6.10
2018-09-14T00:12:19.495Z,6.90
2018-09-14T00:13:19.720Z,6.30
2018-09-14T00:14:20.023Z,6.10
2018-09-14T00:15:20.645Z,6.60
2018-09-14T00:16:20.779Z,6.70
2018-09-14T00:17:20.772Z,6.50
2018-09-14T00:18:20.662Z,6.50
2018-09-14T00:19:20.695Z,7.00
2018-09-14T00:20:21.163Z,6.00
2018-09-14T00:21:21.501Z,6.00
2018-09-14T00:22:21.822Z,6.40
2018-09-14T00:23:22.117Z,6.50
2018-09-14T00:24:22.206Z,6.20
2018-09-14T00:25:22.230Z,6.80
2018-09-14T00:26:22.229Z,6.30
2018-09-14T00:27:22.572Z,6.50
2018-09-14T00:28:22.910Z,6.70
2018-09-14T00:29:23.280Z,6.70
2018-09-14T00:30:23.771Z,6.40
2018-09-14T00:31:24.114Z,6.30
2018-09-14T00:32:24.315Z,5.80
2018-09-14T00:33:24.581Z,6.10
2018-09-14T00:34:24.784Z,5.90
2018-09-14T00:35:24.994Z,5.40
2018-09-14T00:36:25.381Z,5.60
2018-09-14T00:37:25.513Z,5.20
2018-09-14T00:38:25.863Z,5.60
2018-09-14T00:39:26.105Z,5.30
2018-09-14T00:40:26.498Z,5.20
2018-09-14T00:41:26.606Z,5.20
2018-09-14T00:42:26.922Z,5.00
2018-09-14T00:43:27.109Z,5.60
2018-09-14T00:44:27.357Z,5.10
2018-09-14T00:45:27.522Z,4.90
2018-09-14T00:46:27.775Z,5.50
2018-09-14T00:47:28.031Z,5.70
2018-09-14T00:48:28.151Z,5.30
2018-09-14T00:49:28.457Z,5.40
2018-09-14T00:50:28.681Z,5.80
2018-09-14T00:51:28.893Z,5.20
2018-09-14T00:52:29.222Z,4.90
2018-09-14T00:53:29.433Z,5.40
2018-09-14T00:54:29.735Z,5.50
2018-09-14T00:55:29.934Z,5.40
2018-09-14T00:56:30.030Z,5.50
2018-09-14T00:57:30.190Z,4.90
2018-09-14T00:58:30.408Z,5.00
2018-09-14T00:59:30.682Z,4.90
2018-09-14T01:00:30.945Z,4.40
2018-09-14T01:01:31.105Z,4.20
2018-09-14T01:02:31.331Z,4.10
2018-09-14T01:03:31.527Z,3.60
2018-09-14T01:04:31.683Z,3.90
2018-09-14T01:05:31.954Z,4.20
2018-09-14T01:06:32.191Z,4.00
2018-09-14T01:07:32.383Z,4.20
2018-09-14T01:08:32.585Z,3.90
2018-09-14T01:09:32.900Z,4.10
2018-09-14T01:11:33.292Z,3.90
2018-09-14T01:12:33.929Z,4.30
2018-09-14T01:13:34.129Z,4.50
2018-09-14T01:14:34.873Z,4.20
2018-09-14T01:15:34.594Z,4.20
2018-09-14T01:16:35.007Z,4.40
2018-09-14T01:17:35.397Z,3.90
2018-09-14T01:18:38.784Z,4.00
2018-09-14T01:19:36.216Z,4.00
2018-09-14T01:20:36.533Z,3.70
2018-09-14T01:21:36.644Z,3.90
2018-09-14T01:22:36.326Z,4.20
2018-09-14T01:23:36.915Z,4.10
2018-09-14T01:24:37.168Z,4.20
2018-09-14T01:25:37.240Z,4.30
2018-09-14T01:26:37.145Z,3.90
2018-09-14T01:27:37.467Z,4.60
2018-09-14T01:28:37.907Z,4.50
2018-09-14T01:29:38.320Z,5.10
2018-09-14T01:30:38.849Z,5.20
2018-09-14T01:31:38.907Z,5.50
2018-09-14T01:32:38.864Z,6.10
2018-09-14T01:33:39.140Z,5.50
2018-09-14T01:34:39.308Z,5.20
2018-09-14T01:35:39.508Z,5.30
2018-09-14T01:36:39.705Z,5.80
2018-09-14T01:37:39.837Z,5.20
2018-09-14T01:38:40.062Z,5.60
2018-09-14T01:39:40.432Z,5.50
2018-09-14T01:40:40.723Z,5.20
2018-09-14T01:41:40.907Z,5.50
2018-09-14T01:42:41.163Z,5.50
2018-09-14T01:43:41.321Z,5.40
2018-09-14T01:44:41.433Z,5.20
2018-09-14T01:45:41.631Z,6.30
2018-09-14T01:46:41.845Z,5.80
2018-09-14T01:47:42.055Z,6.30
2018-09-14T01:48:42.304Z,6.10
2018-09-14T01:49:42.478Z,6.10
2018-09-14T01:50:42.767Z,5.70
2018-09-14T01:51:42.896Z,6.40
2018-09-14T01:52:43.155Z,6.30
2018-09-14T01:53:43.400Z,6.30
2018-09-14T01:54:43.582Z,5.90
2018-09-14T01:55:43.787Z,5.90
2018-09-14T01:56:43.950Z,6.20
2018-09-14T01:57:44.165Z,6.20
2018-09-14T01:58:44.389Z,7.00
2018-09-14T01:59:44.586Z,6.60
2018-09-14T02:00:44.803Z,5.90
2018-09-14T02:01:45.125Z,6.60
2018-09-14T02:02:45.475Z,6.40
2018-09-14T02:03:45.732Z,6.30
2018-09-14T02:04:45.958Z,6.80
2018-09-14T02:05:46.282Z,6.80
2018-09-14T02:06:46.483Z,6.20
2018-09-14T02:07:46.673Z,6.40
2018-09-14T02:08:46.900Z,6.90
2018-09-14T02:09:47.123Z,5.70
2018-09-14T02:10:47.362Z,6.30
2018-09-14T02:11:47.541Z,5.80
2018-09-14T02:12:47.750Z,6.60
2018-09-14T02:13:48.551Z,5.90
2018-09-14T02:14:49.021Z,6.00
2018-09-14T02:15:49.384Z,5.60
2018-09-14T02:16:50.002Z,6.00
2018-09-14T02:17:49.807Z,6.10
2018-09-14T02:18:50.427Z,6.60
2018-09-14T02:19:50.546Z,6.80
2018-09-14T02:20:50.442Z,6.50
2018-09-14T02:21:50.752Z,6.80
2018-09-14T02:22:51.167Z,6.50
2018-09-14T02:23:51.482Z,7.20
2018-09-14T02:24:51.809Z,7.10
2018-09-14T02:25:51.992Z,7.20
2018-09-14T02:26:52.078Z,7.00
2018-09-14T02:27:52.072Z,6.90
2018-09-14T02:28:52.453Z,6.70
2018-09-14T02:29:52.788Z,6.90
2018-09-14T02:30:53.119Z,7.30
2018-09-14T02:31:53.564Z,6.60
2018-09-14T02:32:53.971Z,6.70
2018-09-14T02:33:54.468Z,6.40
2018-09-14T02:34:54.584Z,6.80
2018-09-14T02:35:54.764Z,6.60
2018-09-14T02:36:54.982Z,7.10
2018-09-14T02:37:55.175Z,7.00
2018-09-14T02:38:55.274Z,7.10
2018-09-14T02:39:55.509Z,6.80
2018-09-14T02:40:55.726Z,6.80
2018-09-14T02:41:56.101Z,7.30
2018-09-14T02:42:56.236Z,6.60
2018-09-14T02:43:56.487Z,6.60
2018-09-14T02:44:56.666Z,7.00
2018-09-14T02:45:56.938Z,7.10
2018-09-14T02:46:57.058Z,7.10
2018-09-14T02:47:57.331Z,6.80
2018-09-14T02:48:57.507Z,7.80
2018-09-14T02:49:57.642Z,7.80
2018-09-14T02:50:57.876Z,7.30
2018-09-14T02:51:58.113Z,7.60
2018-09-14T02:52:58.299Z,7.80
2018-09-14T02:53:58.468Z,7.60
2018-09-14T02:54:58.568Z,7.40
2018-09-14T02:55:58.892Z,8.00
2018-09-14T02:56:59.161Z,7.30
2018-09-14T02:57:59.301Z,7.80
2018-09-14T02:58:59.757Z,7.20
2018-09-14T03:00:00.064Z,8.50
2018-09-14T03:01:00.141Z,7.30
2018-09-14T03:02:00.353Z,8.20
2018-09-14T03:03:00.598Z,7.70
2018-09-14T03:04:00.750Z,8.10
2018-09-14T03:05:00.879Z,8.10
2018-09-14T03:06:01.108Z,7.90
2018-09-14T03:07:01.303Z,8.10
2018-09-14T03:08:01.893Z,8.00
2018-09-14T03:09:01.544Z,7.70
2018-09-14T03:10:01.702Z,7.60
2018-09-14T03:11:02.107Z,7.60
2018-09-14T03:12:02.631Z,7.60
2018-09-14T03:13:02.248Z,8.30
2018-09-14T03:14:02.617Z,7.50
2018-09-14T03:15:02.778Z,7.60
2018-09-14T03:16:03.719Z,8.00
2018-09-14T03:17:04.115Z,7.70
2018-09-14T03:18:04.562Z,7.70
2018-09-14T03:19:04.976Z,8.30
2018-09-14T03:20:05.571Z,8.30
2018-09-14T03:21:05.479Z,7.90
2018-09-14T03:22:05.893Z,8.20
2018-09-14T03:23:06.411Z,7.10
2018-09-14T03:24:06.530Z,7.50
2018-09-14T03:25:06.631Z,7.90
2018-09-14T03:26:06.740Z,7.60
2018-09-14T03:27:06.847Z,7.80
2018-09-14T03:28:06.960Z,7.70
2018-09-14T03:29:06.716Z,7.50
2018-09-14T03:30:07.077Z,7.30
2018-09-14T03:31:07.263Z,7.70
2018-09-14T03:32:07.245Z,7.20
2018-09-14T03:33:07.608Z,7.50
2018-09-14T03:34:07.957Z,7.90
2018-09-14T03:35:08.319Z,7.60
2018-09-14T03:36:08.553Z,7.30
2018-09-14T03:37:08.894Z,8.40
2018-09-14T03:38:09.449Z,8.40
2018-09-14T03:39:10.010Z,7.90
2018-09-14T03:40:09.652Z,7.20
2018-09-14T03:41:09.659Z,7.60
2018-09-14T03:42:09.331Z,7.40
2018-09-14T03:43:09.761Z,8.20
2018-09-14T03:44:10.192Z,8.30
2018-09-14T03:45:10.327Z,8.50
2018-09-14T03:46:10.708Z,8.40
2018-09-14T03:47:10.890Z,8.60
2018-09-14T03:48:11.109Z,7.90
2018-09-14T03:49:11.333Z,8.30
2018-09-14T03:50:11.720Z,8.20
2018-09-14T03:51:11.968Z,8.10
2018-09-14T03:52:12.071Z,8.30
2018-09-14T03:53:12.184Z,8.30
2018-09-14T03:54:12.381Z,8.40
2018-09-14T03:55:12.875Z,8.60
2018-09-14T03:56:13.108Z,8.00
2018-09-14T03:57:13.439Z,9.30
2018-09-14T03:58:13.630Z,7.90
2018-09-14T03:59:13.860Z,8.90
2018-09-14T04:00:13.937Z,8.10
2018-09-14T04:01:14.154Z,8.00
2018-09-14T04:02:14.253Z,8.70
2018-09-14T04:03:14.547Z,8.80
2018-09-14T04:04:14.800Z,8.70
2018-09-14T04:05:15.286Z,8.60
2018-09-14T04:06:15.393Z,8.80
2018-09-14T04:07:15.536Z,9.10
2018-09-14T04:08:15.644Z,9.40
2018-09-14T04:09:15.902Z,10.00
2018-09-14T04:10:16.401Z,9.00
2018-09-14T04:11:16.512Z,9.60
2018-09-14T04:12:16.836Z,9.40
2018-09-14T04:13:17.049Z,9.40
2018-09-14T04:14:17.217Z,10.20
2018-09-14T04:15:17.418Z,9.50
2018-09-14T04:16:17.632Z,9.90
2018-09-14T04:17:18.129Z,10.90
2018-09-14T04:19:18.973Z,11.00
2018-09-14T04:20:19.076Z,11.70
2018-09-14T04:21:19.389Z,10.70
2018-09-14T04:22:19.504Z,12.10
2018-09-14T04:23:20.168Z,11.90
2018-09-14T04:24:19.720Z,10.80
2018-09-14T04:25:20.231Z,11.60
2018-09-14T04:26:20.338Z,12.60
2018-09-14T04:27:20.346Z,12.70
2018-09-14T04:28:20.352Z,12.20
2018-09-14T04:29:20.472Z,12.00
2018-09-14T04:30:20.367Z,12.70
2018-09-14T04:31:20.681Z,12.90
2018-09-14T04:32:21.052Z,12.50
2018-09-14T04:33:21.309Z,12.50
2018-09-14T04:34:21.633Z,12.90
2018-09-14T04:35:21.928Z,13.90
2018-09-14T04:36:22.032Z,11.90
2018-09-14T04:37:22.224Z,12.00
2018-09-14T04:38:22.261Z,13.20
2018-09-14T04:39:22.235Z,12.60
2018-09-14T04:40:22.224Z,13.00
2018-09-14T04:41:22.562Z,13.60
2018-09-14T04:42:22.897Z,12.40
2018-09-14T04:43:23.311Z,13.20
2018-09-14T04:44:23.832Z,13.30
2018-09-14T04:45:23.738Z,12.40
2018-09-14T04:46:23.950Z,13.10
2018-09-14T04:47:24.244Z,13.50
2018-09-14T04:48:24.411Z,12.60
2018-09-14T04:49:24.705Z,13.30
2018-09-14T04:50:24.791Z,14.10
2018-09-14T04:51:25.015Z,13.40
2018-09-14T04:52:25.172Z,13.70
2018-09-14T04:53:25.542Z,13.20
2018-09-14T04:54:25.671Z,12.80
2018-09-14T04:55:25.983Z,12.00
2018-09-14T04:56:26.197Z,13.70
2018-09-14T04:57:26.522Z,13.30
2018-09-14T04:58:27.740Z,12.90
2018-09-14T04:59:27.087Z,13.40
2018-09-14T05:00:27.269Z,14.00
2018-09-14T05:01:27.381Z,13.00
2018-09-14T05:02:27.499Z,13.20
2018-09-14T05:03:27.632Z,12.60
2018-09-14T05:04:27.822Z,13.10
2018-09-14T05:05:27.919Z,13.40
2018-09-14T05:06:28.125Z,13.80
2018-09-14T05:07:28.262Z,13.50
2018-09-14T05:08:28.424Z,13.90
2018-09-14T05:09:28.543Z,13.70
2018-09-14T05:10:28.793Z,14.00
2018-09-14T05:11:28.956Z,12.70
2018-09-14T05:12:29.169Z,12.70
2018-09-14T05:13:29.383Z,12.80
2018-09-14T05:14:29.768Z,13.80
2018-09-14T05:15:29.951Z,13.40
2018-09-14T05:16:30.072Z,13.60
2018-09-14T05:17:30.215Z,12.50
2018-09-14T05:18:30.543Z,12.80
2018-09-14T05:19:30.760Z,12.50
2018-09-14T05:20:31.097Z,12.90
2018-09-14T05:21:31.275Z,12.30
2018-09-14T05:22:31.468Z,12.70
2018-09-14T05:23:31.782Z,13.50
2018-09-14T05:24:32.005Z,13.40
2018-09-14T05:25:33.836Z,12.50
2018-09-14T05:26:32.576Z,12.50
2018-09-14T05:27:32.924Z,13.00
2018-09-14T05:28:32.807Z,13.60
2018-09-14T05:29:33.246Z,12.90
2018-09-14T05:30:34.147Z,13.00
2018-09-14T05:31:34.561Z,12.80
2018-09-14T05:32:34.879Z,12.70
2018-09-14T05:33:35.500Z,13.30
2018-09-14T05:34:35.617Z,12.90
2018-09-14T05:35:35.617Z,12.70
2018-09-14T05:36:36.108Z,11.90
2018-09-14T05:37:36.442Z,12.60
2018-09-14T05:38:36.652Z,13.00
2018-09-14T05:39:36.883Z,12.80
2018-09-14T05:40:37.060Z,12.90
2018-09-14T05:41:37.194Z,13.20
2018-09-14T05:42:37.289Z,12.40
2018-09-14T05:43:37.301Z,12.30
2018-09-14T05:44:37.262Z,11.70
2018-09-14T05:45:37.728Z,12.20
2018-09-14T05:46:38.083Z,12.20
2018-09-14T05:47:38.663Z,12.00
2018-09-14T05:48:38.548Z,12.10
2018-09-14T05:49:39.088Z,12.10
2018-09-14T05:50:39.090Z,11.60
2018-09-14T05:51:38.943Z,12.50
2018-09-14T05:52:39.366Z,12.20
2018-09-14T05:53:39.656Z,11.20
2018-09-14T05:54:39.985Z,10.90
2018-09-14T05:55:40.223Z,11.10
2018-09-14T05:56:40.456Z,10.90
2018-09-14T05:57:40.628Z,11.20
2018-09-14T05:58:40.863Z,11.20
2018-09-14T05:59:41.100Z,11.40
2018-09-14T06:00:41.295Z,11.60
2018-09-14T06:01:41.648Z,10.40
2018-09-14T06:02:41.816Z,10.80
2018-09-14T06:03:41.998Z,10.90
2018-09-14T06:04:42.224Z,11.30
2018-09-14T06:05:42.455Z,10.40
2018-09-14T06:06:42.834Z,10.60
2018-09-14T06:07:43.020Z,10.30
2018-09-14T06:08:43.319Z,9.80
2018-09-14T06:09:43.532Z,10.10
2018-09-14T06:10:43.683Z,9.80
2018-09-14T06:11:43.895Z,9.60
2018-09-14T06:12:44.067Z,9.50
2018-09-14T06:13:44.286Z,9.90
2018-09-14T06:14:44.560Z,9.50
2018-09-14T06:15:44.671Z,10.50
2018-09-14T06:16:44.780Z,10.20
2018-09-14T06:17:45.070Z,10.40
2018-09-14T06:18:45.272Z,10.40
2018-09-14T06:19:45.453Z,9.50
2018-09-14T06:20:45.715Z,10.10
2018-09-14T06:21:45.875Z,10.20
2018-09-14T06:22:46.158Z,9.00
2018-09-14T06:23:46.202Z,9.20
2018-09-14T06:24:46.449Z,9.60
2018-09-14T06:25:46.626Z,9.30
2018-09-14T06:26:46.919Z,9.20
2018-09-14T06:27:47.019Z,9.00
2018-09-14T06:28:47.161Z,8.20
2018-09-14T06:29:47.405Z,9.00
2018-09-14T06:30:47.578Z,9.70
2018-09-14T06:31:47.779Z,8.70
2018-09-14T06:32:48.374Z,8.30
2018-09-14T06:33:48.585Z,8.70
2018-09-14T06:34:48.900Z,9.10
2018-09-14T06:35:49.231Z,9.30
2018-09-14T06:36:49.642Z,8.60
2018-09-14T06:37:49.786Z,9.70
2018-09-14T06:38:50.265Z,9.70
2018-09-14T06:39:50.650Z,10.30
2018-09-14T06:40:50.954Z,9.30
2018-09-14T06:41:51.133Z,10.40
2018-09-14T06:42:51.617Z,10.10
2018-09-14T06:43:52.022Z,10.50
2018-09-14T06:44:52.279Z,10.40
2018-09-14T06:45:52.326Z,10.30
2018-09-14T06:46:52.205Z,9.60
2018-09-14T06:47:52.652Z,10.20
2018-09-14T06:48:53.074Z,10.30
2018-09-14T06:49:53.482Z,10.60
2018-09-14T06:50:53.931Z,10.10
2018-09-14T06:51:54.392Z,11.80
2018-09-14T06:52:54.792Z,10.60
2018-09-14T06:53:55.127Z,10.80
2018-09-14T06:54:55.311Z,10.80
2018-09-14T06:55:55.428Z,10.40
2018-09-14T06:56:55.544Z,10.40
2018-09-14T06:57:55.857Z,10.20
2018-09-14T06:58:56.054Z,10.40
2018-09-14T06:59:56.302Z,10.30
2018-09-14T07:00:56.663Z,10.30
2018-09-14T07:01:56.791Z,10.00
2018-09-14T07:02:57.003Z,10.60
2018-09-14T07:03:57.273Z,10.20
2018-09-14T07:04:57.417Z,9.90
2018-09-14T07:05:57.666Z,10.40
2018-09-14T07:06:57.901Z,10.30
2018-09-14T07:07:58.061Z,10.60
2018-09-14T07:08:58.264Z,9.90
2018-09-14T07:09:58.392Z,10.60
2018-09-14T07:10:58.594Z,11.00
2018-09-14T07:11:58.889Z,10.90
2018-09-14T07:12:59.140Z,11.10
2018-09-14T07:13:59.594Z,11.30
2018-09-14T07:14:59.755Z,11.20
2018-09-14T07:16:00.184Z,10.60
2018-09-14T07:17:00.380Z,10.40
2018-09-14T07:18:00.596Z,11.90
2018-09-14T07:19:00.966Z,10.90
2018-09-14T07:20:01.167Z,12.30
2018-09-14T07:21:01.319Z,11.20
2018-09-14T07:22:01.938Z,11.60
2018-09-14T07:23:01.645Z,12.00
2018-09-14T07:24:01.852Z,11.10
2018-09-14T07:25:02.234Z,11.20
2018-09-14T07:26:02.615Z,12.10
2018-09-14T07:27:03.278Z,11.10
2018-09-14T07:28:03.588Z,11.60
2018-09-14T07:29:04.056Z,11.90
2018-09-14T07:30:04.441Z,11.10
2018-09-14T07:31:04.744Z,11.30
2018-09-14T07:32:04.885Z,11.90
2018-09-14T07:33:04.887Z,11.20
2018-09-14T07:34:05.159Z,11.60
2018-09-14T07:35:05.675Z,11.70
2018-09-14T07:36:05.389Z,11.30
2018-09-14T07:37:05.688Z,12.20
2018-09-14T07:38:06.310Z,12.30
2018-09-14T07:39:06.320Z,12.10
2018-09-14T07:40:06.326Z,11.90
2018-09-14T07:41:06.134Z,11.30
2018-09-14T07:42:06.609Z,11.70
2018-09-14T07:43:06.362Z,13.40
2018-09-14T07:44:07.157Z,12.50
2018-09-14T07:45:07.141Z,12.00
2018-09-14T07:46:07.521Z,11.80
2018-09-14T07:47:07.906Z,12.60
2018-09-14T07:48:08.347Z,12.10
2018-09-14T07:49:08.832Z,11.90
2018-09-14T07:50:08.985Z,11.60
2018-09-14T07:51:09.063Z,12.00
2018-09-14T07:52:09.041Z,11.50
2018-09-14T07:53:09.159Z,12.20
2018-09-14T07:54:09.591Z,11.80
2018-09-14T07:55:09.787Z,11.70
2018-09-14T07:56:10.046Z,12.00
2018-09-14T07:57:10.487Z,11.20
2018-09-14T07:58:10.836Z,11.30
2018-09-14T07:59:11.041Z,11.00
2018-09-14T08:00:11.244Z,10.70
2018-09-14T08:01:11.482Z,11.40
2018-09-14T08:02:11.668Z,10.40
2018-09-14T08:03:11.982Z,10.80
2018-09-14T08:04:12.158Z,11.30
2018-09-14T08:05:12.559Z,11.40
2018-09-14T08:06:12.801Z,11.00
2018-09-14T08:07:13.052Z,12.10
2018-09-14T08:08:13.237Z,11.50
2018-09-14T08:09:13.735Z,11.00
2018-09-14T08:10:13.995Z,11.10
2018-09-14T08:11:14.104Z,10.10
2018-09-14T08:12:14.246Z,11.30
2018-09-14T08:13:14.517Z,10.00
2018-09-14T08:14:14.861Z,11.90
2018-09-14T08:15:15.462Z,11.10
2018-09-14T08:16:15.103Z,10.90
2018-09-14T08:17:15.307Z,10.80
2018-09-14T08:18:15.618Z,11.00
2018-09-14T08:19:15.831Z,11.90
2018-09-14T08:20:16.517Z,10.90
2018-09-14T08:21:16.449Z,11.30
2018-09-14T08:22:16.466Z,11.30
2018-09-14T08:23:16.678Z,11.70
2018-09-14T08:24:16.804Z,12.10
2018-09-14T08:25:17.251Z,11.90
2018-09-14T08:26:17.540Z,11.00
2018-09-14T08:27:17.724Z,11.60
2018-09-14T08:28:18.106Z,12.00
2018-09-14T08:29:19.085Z,11.50
2018-09-14T08:30:19.450Z,11.10
2018-09-14T08:31:19.868Z,10.80
2018-09-14T08:32:20.595Z,10.60
2018-09-14T08:33:20.086Z,10.40
2018-09-14T08:34:20.499Z,12.00
2018-09-14T08:35:21.019Z,11.00
2018-09-14T08:36:21.135Z,10.70
2018-09-14T08:37:21.154Z,11.30
2018-09-14T08:38:21.025Z,11.20
2018-09-14T08:39:21.212Z,11.70
2018-09-14T08:40:21.362Z,11.30
2018-09-14T08:41:21.776Z,11.10
2018-09-14T08:42:22.090Z,11.30
2018-09-14T08:43:22.097Z,11.50
2018-09-14T08:44:22.290Z,11.70
2018-09-14T08:45:22.201Z,11.90
2018-09-14T08:46:22.619Z,11.70
2018-09-14T08:47:23.053Z,10.90
2018-09-14T08:48:23.460Z,11.70
2018-09-14T08:49:23.848Z,11.30
2018-09-14T08:50:24.045Z,11.70
2018-09-14T08:51:24.255Z,11.50
2018-09-14T08:52:24.497Z,11.30
2018-09-14T08:53:24.662Z,12.10
2018-09-14T08:54:25.028Z,12.20
2018-09-14T08:55:25.244Z,11.60
2018-09-14T08:56:25.452Z,11.90
2018-09-14T08:57:25.596Z,11.40
2018-09-14T08:58:25.865Z,11.10
2018-09-14T09:00:26.142Z,11.30
2018-09-14T09:01:26.339Z,11.40
2018-09-14T09:02:26.583Z,10.30
2018-09-14T09:03:27.013Z,11.00
2018-09-14T09:04:27.216Z,11.20
2018-09-14T09:05:27.487Z,10.90
2018-09-14T09:06:27.778Z,10.50
2018-09-14T09:07:27.926Z,9.90
2018-09-14T09:08:28.116Z,10.90
2018-09-14T09:09:28.467Z,11.90
2018-09-14T09:10:28.810Z,10.90
2018-09-14T09:11:28.998Z,11.30
2018-09-14T09:12:29.076Z,11.70
2018-09-14T09:13:29.302Z,11.20
2018-09-14T09:14:29.494Z,10.90
2018-09-14T09:15:29.805Z,10.90
2018-09-14T09:16:30.229Z,11.30
2018-09-14T09:17:30.531Z,11.40
2018-09-14T09:18:30.756Z,10.80
2018-09-14T09:19:31.057Z,11.20
2018-09-14T09:20:31.172Z,11.00
2018-09-14T09:21:31.379Z,11.00
2018-09-14T09:22:31.636Z,10.40
2018-09-14T09:23:31.890Z,10.20
2018-09-14T09:24:32.037Z,10.50
2018-09-14T09:25:32.231Z,10.80
2018-09-14T09:26:32.615Z,10.10
2018-09-14T09:27:33.046Z,9.70
2018-09-14T09:28:33.653Z,10.80
2018-09-14T09:29:34.017Z,10.00
2018-09-14T09:30:34.281Z,9.70
2018-09-14T09:31:34.599Z,9.70
2018-09-14T09:32:35.236Z,10.20
2018-09-14T09:33:35.226Z,10.40
2018-09-14T09:34:35.746Z,10.50
2018-09-14T09:35:35.757Z,10.00
2018-09-14T09:36:35.860Z,9.20
2018-09-14T09:37:35.875Z,9.90
2018-09-14T09:38:35.976Z,9.20
2018-09-14T09:39:35.989Z,9.90
2018-09-14T09:40:36.091Z,9.70
2018-09-14T09:41:36.201Z,9.70
2018-09-14T09:42:36.218Z,9.30
2018-09-14T09:43:36.268Z,8.90
2018-09-14T09:44:36.736Z,9.70
2018-09-14T09:45:36.429Z,8.30
2018-09-14T09:46:36.946Z,9.10
2018-09-14T09:47:36.581Z,9.10
2018-09-14T09:48:36.962Z,8.00
2018-09-14T09:49:37.209Z,7.70
2018-09-14T09:50:37.328Z,8.20
2018-09-14T09:51:37.242Z,8.50
2018-09-14T09:52:37.685Z,7.30
2018-09-14T09:53:38.707Z,8.20
2018-09-14T09:54:38.080Z,7.60
2018-09-14T09:55:38.750Z,6.00
2018-09-14T09:56:38.678Z,6.00
2018-09-14T09:57:39.285Z,6.30
2018-09-14T09:58:39.243Z,6.50
2018-09-14T09:59:39.412Z,7.60
2018-09-14T10:00:39.676Z,7.50
2018-09-14T10:01:39.831Z,6.70
2018-09-14T10:02:40.098Z,7.50
2018-09-14T10:03:40.288Z,8.00
2018-09-14T10:04:40.469Z,7.60
2018-09-14T10:05:40.702Z,8.30
2018-09-14T10:06:40.929Z,8.50
2018-09-14T10:07:41.310Z,8.60
2018-09-14T10:08:41.553Z,8.70
2018-09-14T10:09:41.727Z,9.50
2018-09-14T10:10:41.975Z,9.00
2018-09-14T10:11:42.165Z,9.00
2018-09-14T10:12:42.534Z,8.00
2018-09-14T10:13:42.790Z,8.00
2018-09-14T10:14:43.018Z,7.90
2018-09-14T10:15:43.210Z,7.80
2018-09-14T10:16:43.323Z,7.70
2018-09-14T10:17:43.427Z,8.60
2018-09-14T10:18:43.655Z,8.00
2018-09-14T10:19:43.850Z,7.90
2018-09-14T10:20:44.069Z,7.70
2018-09-14T10:21:44.501Z,7.50
2018-09-14T10:22:44.604Z,7.30
2018-09-14T10:23:44.858Z,7.70
2018-09-14T10:24:45.011Z,7.30
2018-09-14T10:25:45.279Z,7.20
2018-09-14T10:26:45.713Z,7.00
2018-09-14T10:27:45.874Z,6.50
2018-09-14T10:28:46.079Z,7.20
2018-09-14T10:29:46.268Z,6.60
2018-09-14T10:30:46.397Z,6.50
2018-09-14T10:31:46.602Z,6.10
2018-09-14T10:32:46.815Z,5.70
2018-09-14T10:33:47.186Z,5.10
2018-09-14T10:34:47.352Z,5.70
2018-09-14T10:35:47.544Z,5.00
2018-09-14T10:36:47.722Z,5.70
2018-09-14T10:37:47.885Z,6.00
2018-09-14T10:38:48.670Z,5.20
2018-09-14T10:39:48.979Z,5.00
2018-09-14T10:40:49.530Z,5.50
2018-09-14T10:41:49.297Z,4.90
2018-09-14T10:42:49.829Z,4.70
2018-09-14T10:43:49.720Z,5.00
2018-09-14T10:44:50.126Z,4.50
2018-09-14T10:45:50.643Z,4.30
2018-09-14T10:46:50.648Z,4.00
2018-09-14T10:47:50.759Z,4.40
2018-09-14T10:48:50.983Z,3.90
2018-09-14T10:49:50.988Z,3.60
2018-09-14T10:50:50.988Z,3.90
2018-09-14T10:51:50.950Z,3.70
2018-09-14T10:52:51.236Z,3.90
2018-09-14T10:53:51.730Z,4.30
2018-09-14T10:54:51.968Z,4.50
2018-09-14T10:55:52.114Z,4.20
2018-09-14T10:56:52.122Z,3.60
2018-09-14T10:57:52.573Z,4.00
2018-09-14T10:58:52.906Z,3.70
2018-09-14T10:59:53.513Z,4.00
2018-09-14T11:00:53.409Z,4.20
2018-09-14T11:01:53.759Z,4.10
2018-09-14T11:02:54.079Z,3.40
2018-09-14T11:03:54.442Z,3.10
2018-09-14T11:04:54.590Z,3.10
2018-09-14T11:05:54.959Z,3.10
2018-09-14T11:06:55.132Z,2.80
2018-09-14T11:07:55.250Z,2.80
2018-09-14T11:08:55.444Z,3.10
2018-09-14T11:09:55.611Z,3.00
2018-09-14T11:10:55.886Z,2.60
2018-09-14T11:11:56.062Z,3.20
2018-09-14T11:12:56.322Z,4.00
2018-09-14T11:13:56.435Z,3.30
2018-09-14T11:14:56.594Z,3.60
2018-09-14T11:15:56.824Z,4.20
2018-09-14T11:16:57.138Z,3.90
2018-09-14T11:17:57.350Z,3.30
2018-09-14T11:18:57.694Z,3.40
2018-09-14T11:19:57.964Z,3.40
2018-09-14T11:20:58.182Z,3.90
2018-09-14T11:21:58.422Z,3.20
2018-09-14T11:22:58.609Z,3.30
2018-09-14T11:23:58.828Z,4.20
2018-09-14T11:24:59.262Z,4.60
2018-09-14T11:25:59.336Z,3.60
2018-09-14T11:26:59.588Z,4.00
2018-09-14T11:27:59.770Z,4.20
2018-09-14T11:29:00.154Z,3.90
2018-09-14T11:30:00.416Z,3.80
2018-09-14T11:31:00.580Z,4.10
2018-09-14T11:32:00.670Z,3.70
2018-09-14T11:33:00.890Z,3.30
2018-09-14T11:34:01.117Z,3.20
2018-09-14T11:35:01.316Z,3.10
2018-09-14T11:36:01.673Z,3.20
2018-09-14T11:37:02.114Z,3.60
2018-09-14T11:38:02.583Z,3.10
2018-09-14T11:39:03.366Z,3.30
2018-09-14T11:40:03.878Z,2.80
2018-09-14T11:41:03.884Z,2.90
2018-09-14T11:42:03.889Z,2.90
2018-09-14T11:43:04.004Z,3.20
2018-09-14T11:44:04.017Z,3.50
2018-09-14T11:45:03.856Z,3.20
2018-09-14T11:46:04.484Z,3.30
2018-09-14T11:47:04.231Z,3.00
2018-09-14T11:48:04.547Z,2.90
2018-09-14T11:50:05.078Z,2.90
2018-09-14T11:51:05.392Z,3.10
2018-09-14T11:52:05.879Z,2.70
2018-09-14T11:53:06.422Z,2.70
2018-09-14T11:54:06.560Z,2.60
2018-09-14T11:55:06.335Z,3.00
2018-09-14T11:56:06.750Z,3.00
2018-09-14T11:57:07.061Z,2.70
2018-09-14T11:58:07.264Z,2.60
2018-09-14T11:59:07.238Z,2.80
2018-09-14T12:00:07.638Z,2.80
2018-09-14T12:01:07.789Z,2.70
2018-09-14T12:02:08.128Z,2.80
2018-09-14T12:03:08.249Z,2.80
2018-09-14T12:04:08.460Z,2.80
2018-09-14T12:05:08.843Z,2.70
2018-09-14T12:06:09.476Z,2.80
2018-09-14T12:07:09.550Z,2.80
2018-09-14T12:08:09.615Z,2.90
2018-09-14T12:09:09.685Z,2.90
2018-09-14T12:10:09.664Z,2.70
2018-09-14T12:11:09.844Z,2.50
2018-09-14T12:12:10.130Z,2.60
2018-09-14T12:13:10.285Z,2.80
2018-09-14T12:14:10.535Z,2.60
2018-09-14T12:15:10.764Z,2.50
2018-09-14T12:16:10.916Z,2.90
2018-09-14T12:17:11.114Z,2.60
2018-09-14T12:18:11.357Z,2.90
2018-09-14T12:19:11.543Z,2.80
2018-09-14T12:20:11.777Z,3.20
2018-09-14T12:21:11.970Z,2.60
2018-09-14T12:22:12.381Z,2.40
2018-09-14T12:23:12.477Z,2.70
2018-09-14T12:24:12.702Z,2.80
2018-09-14T12:25:12.765Z,2.80
2018-09-14T12:26:12.905Z,3.00
2018-09-14T12:27:13.112Z,2.70
2018-09-14T12:28:13.425Z,3.10
2018-09-14T12:29:13.547Z,2.70
2018-09-14T12:30:13.873Z,2.80
2018-09-14T12:32:14.082Z,2.60
2018-09-14T12:33:14.295Z,3.00
2018-09-14T12:34:14.454Z,2.30
2018-09-14T12:35:14.993Z,3.00
2018-09-14T12:36:14.713Z,2.70
2018-09-14T12:37:14.975Z,2.90
2018-09-14T12:38:15.140Z,2.60
2018-09-14T12:39:15.411Z,2.60
2018-09-14T12:40:15.805Z,2.70
2018-09-14T12:41:16.140Z,2.80
2018-09-14T12:42:16.287Z,2.70
2018-09-14T12:43:16.497Z,2.50
2018-09-14T12:44:16.720Z,2.70
2018-09-14T12:45:17.089Z,2.40
2018-09-14T12:46:17.260Z,2.50
2018-09-14T12:47:17.450Z,2.80
2018-09-14T12:48:17.693Z,2.20
2018-09-14T12:49:17.817Z,3.20
2018-09-14T12:50:18.479Z,2.70
2018-09-14T12:51:18.677Z,3.10
2018-09-14T12:52:20.221Z,2.90
2018-09-14T12:53:19.205Z,2.70
2018-09-14T12:54:19.619Z,3.00
2018-09-14T12:55:20.155Z,2.90
2018-09-14T12:56:20.170Z,2.70
2018-09-14T12:57:20.763Z,3.00
2018-09-14T12:58:20.669Z,3.20
2018-09-14T12:59:21.087Z,2.70
2018-09-14T13:00:21.619Z,2.90
2018-09-14T13:01:21.610Z,2.50
2018-09-14T13:02:21.919Z,3.00
2018-09-14T13:03:22.150Z,3.00
2018-09-14T13:04:22.369Z,2.90
2018-09-14T13:05:22.178Z,2.70
2018-09-14T13:06:22.978Z,2.70
2018-09-14T13:07:22.821Z,2.50
2018-09-14T13:08:23.296Z,2.50
2018-09-14T13:09:23.687Z,2.90
2018-09-14T13:10:24.092Z,3.30
2018-09-14T13:11:24.415Z,2.90
2018-09-14T13:12:25.173Z,2.90
2018-09-14T13:13:24.822Z,3.10
2018-09-14T13:14:24.955Z,2.90
2018-09-14T13:15:25.191Z,2.80
2018-09-14T13:16:25.444Z,3.40